»·PEaware :: N779CT KCLM-KBLI

N779CT :: KCLM-KBLI

FLIGHT INFORMATION

Flight Status: Arrived
Operator: Privately registered:
United States
More flights under this callsign
Pilot: Christoph Z. (37728)
Aircraft: CIRRUS SR-22 TURBO
(S22T)
More flights by this aircraft type
Origin: KCLM Fairchild Intl
United States
Destination: KBLI Bellingham Intl
United States
More flights between these airports :: More routes between these airports
Route: WATTR7 WATTR CVV V165 HUH
File this flight plan on PilotEdge
Remarks: WATTR 7 DP, RWY 09
Altitude:
(Current/Filed)
5,000ft
Speed:
(Current/Filed)
165kts
Departed: 15-Nov-23 08:20 PM
Arrived: 15-Nov-23 09:02 PM
Distance/Time
Traveled:
56nm/0:42
Distance/Time
To Go:
Arrived

Flight Plot

Page will automatically refresh every two minutes.

Flight plan parsing failed; only flown route is shown


Map Options




Map Legend


Flown Route
Filed Route
Departure Airport
Arrival Airport
Navaid (VOR, NDB)
Fix

Horizontal Profiles

Position Reports

Time Latitude Longitude Heading Altitude Ground
Speed
15-Nov-23 19:48 48.117073 -123.500540 104 268ft 0kts
15-Nov-23 19:49 48.117073 -123.500540 104 268ft 0kts
15-Nov-23 19:50 48.117073 -123.500540 104 268ft 0kts
15-Nov-23 19:51 48.117073 -123.500540 104 268ft 0kts
15-Nov-23 19:52 48.117073 -123.500540 104 268ft 0kts
15-Nov-23 19:53 48.117073 -123.500540 104 268ft 0kts
15-Nov-23 19:54 48.117073 -123.500540 104 268ft 0kts
15-Nov-23 19:55 48.117073 -123.500540 104 268ft 0kts
15-Nov-23 19:56 48.117064 -123.500515 124 268ft 0kts
15-Nov-23 19:57 48.117613 -123.500424 100 267ft 4kts
15-Nov-23 19:58 48.118026 -123.500689 292 267ft 9kts
15-Nov-23 19:59 48.119136 -123.507015 285 270ft 22kts
15-Nov-23 20:00 48.120047 -123.511933 8 261ft 0kts
15-Nov-23 20:01 48.120047 -123.511933 8 261ft 0kts
15-Nov-23 20:02 48.120047 -123.511933 8 261ft 0kts
15-Nov-23 20:03 48.120047 -123.511933 8 261ft 0kts
15-Nov-23 20:04 48.120047 -123.511933 8 261ft 0kts
15-Nov-23 20:05 48.120047 -123.511933 8 261ft 0kts
15-Nov-23 20:05 48.120047 -123.511933 8 261ft 0kts
15-Nov-23 20:07 48.120047 -123.511933 8 261ft 0kts
15-Nov-23 20:08 48.120047 -123.511933 8 261ft 0kts
15-Nov-23 20:09 48.120047 -123.511933 8 261ft 0kts
15-Nov-23 20:10 48.120047 -123.511933 8 261ft 0kts
15-Nov-23 20:10 48.120047 -123.511933 8 261ft 0kts
15-Nov-23 20:12 48.120047 -123.511933 8 261ft 0kts
15-Nov-23 20:12 48.120047 -123.511933 8 261ft 0kts
15-Nov-23 20:14 48.120047 -123.511933 8 261ft 0kts
15-Nov-23 20:15 48.120047 -123.511933 8 261ft 0kts
15-Nov-23 20:15 48.120047 -123.511933 8 261ft 0kts
15-Nov-23 20:16 48.120047 -123.511933 8 261ft 0kts
15-Nov-23 20:18 48.120047 -123.511933 8 261ft 0kts
15-Nov-23 20:19 48.120346 -123.511771 17 261ft 3kts
15-Nov-23 20:19 48.120002 -123.505179 105 269ft 86kts
15-Nov-23 20:20 48.122358 -123.462499 59 1537ft 128kts
15-Nov-23 20:21 48.139560 -123.414597 60 2952ft 141kts
15-Nov-23 20:22 48.144418 -123.358484 87 4477ft 138kts
15-Nov-23 20:23 48.143851 -123.299650 89 5964ft 146kts
15-Nov-23 20:24 48.143068 -123.234275 89 6773ft 183kts
15-Nov-23 20:25 48.142099 -123.157245 89 6716ft 181kts
15-Nov-23 20:26 48.141142 -123.083431 89 6715ft 175kts
15-Nov-23 20:27 48.140187 -123.010581 89 6724ft 175kts
15-Nov-23 20:28 48.142103 -122.938319 55 6686ft 173kts
15-Nov-23 20:29 48.169016 -122.880169 50 6723ft 171kts
15-Nov-23 20:30 48.196969 -122.822768 51 6719ft 170kts
15-Nov-23 20:32 48.229326 -122.756101 50 6724ft 170kts
15-Nov-23 20:32 48.258897 -122.722970 7 6747ft 162kts
15-Nov-23 20:33 48.303924 -122.712484 4 6723ft 164kts
15-Nov-23 20:34 48.348958 -122.703059 4 6724ft 164kts
15-Nov-23 20:35 48.394343 -122.693728 4 6726ft 163kts
15-Nov-23 20:36 48.439514 -122.684439 4 6720ft 164kts
15-Nov-23 20:37 48.484797 -122.675101 4 6718ft 163kts
15-Nov-23 20:38 48.529823 -122.665832 4 6714ft 163kts
15-Nov-23 20:39 48.574505 -122.655068 7 6695ft 157kts
15-Nov-23 20:40 48.615090 -122.643929 6 6714ft 143kts
15-Nov-23 20:41 48.653804 -122.633263 6 6729ft 141kts
15-Nov-23 20:42 48.693577 -122.622283 7 6471ft 156kts
15-Nov-23 20:43 48.736995 -122.610224 7 5946ft 148kts
15-Nov-23 20:44 48.776759 -122.599233 7 5530ft 144kts
15-Nov-23 20:45 48.816205 -122.588269 8 5234ft 143kts
15-Nov-23 20:46 48.855463 -122.577347 7 5143ft 143kts
15-Nov-23 20:47 48.893832 -122.566652 8 4742ft 120kts
15-Nov-23 20:48 48.926168 -122.557658 9 4288ft 123kts
15-Nov-23 20:49 48.959956 -122.548216 9 3742ft 120kts
15-Nov-23 20:50 48.992127 -122.539222 9 3272ft 113kts
15-Nov-23 20:51 49.025475 -122.539175 358 2914ft 124kts
15-Nov-23 20:52 49.054580 -122.552150 280 2251ft 118kts
15-Nov-23 20:53 49.031164 -122.562580 147 1927ft 117kts
15-Nov-23 20:54 48.999974 -122.540937 170 1917ft 125kts
15-Nov-23 20:55 48.966390 -122.538272 178 1921ft 120kts
15-Nov-23 20:56 48.931508 -122.537984 179 1920ft 126kts
15-Nov-23 20:57 48.898319 -122.537904 179 1912ft 106kts
15-Nov-23 20:58 48.868864 -122.537823 179 1490ft 105kts
15-Nov-23 20:59 48.839580 -122.537675 179 936ft 105kts
15-Nov-23 21:00 48.812100 -122.537574 179 396ft 89kts
15-Nov-23 21:01 48.793138 -122.537477 178 160ft 13kts
15-Nov-23 21:02 48.793228 -122.536288 39 160ft 0kts
15-Nov-23 21:03 48.793228 -122.536288 39 160ft 0kts
15-Nov-23 21:04 48.793228 -122.536288 39 160ft 0kts
15-Nov-23 21:05 48.796660 -122.535839 359 157ft 25kts
15-Nov-23 21:06 48.801775 -122.536177 292 147ft 0kts
15-Nov-23 21:07 48.801781 -122.536260 275 147ft 0kts
15-Nov-23 21:08 48.801781 -122.536260 275 147ft 0kts
15-Nov-23 21:09 48.801781 -122.536260 275 147ft 0kts
15-Nov-23 21:10 48.801781 -122.536260 275 147ft 0kts

Navigation Log

Ident Type
Flight plan parsing failed, navigation log unavailable